航空気象通報

ウインドサーファーのための航空気象通報による風予報です。

1/30-1/31の航空気象通報(国内、海外)

2010年01月30日 22時30分27秒 | TAF
羽田空港
TAF RJTT 300837Z 3009/3112 19006KT 9999 FEW030
BECMG 3012/3014 01006KT
BECMG 3103/3106 16008KT
日本時間30日18-21時:190度から6ノットの風
21-23時:風が変化
23時-31日12時:010度から6ノットの風
12-15時:風が変化
15-21時:160度から8ノットの風


富士山静岡空港
TAF RJNS 300837Z 3009/3112 27012KT 9999 FEW030
BECMG 3106/3109 36008KT
日本時間30日18時-31日15時:270度から12ノットの風
15-18時:風が変化
18-21時:360度から8ノットの風


那覇空港
TAF ROAH 300843Z 3009/3112 11004KT 9999 -SHRA FEW015 BKN025
TEMPO 3021/3024 4000 SHRA
BECMG 3100/3103 19011KT
日本時間30日18時-31日09時:110度から4ノットの風
09-12時:風が変化
12-21時:190度から11ノットの風

但し、31日06-09時の間:一時、

マウイのカフルイ空港
PHOG 301139Z 3012/3112 VRB06KT P6SM -RA SCT025 OVC050
TEMPO 3013/3017 5SM -RA BKN025
FM302000 02010KT P6SM -RA SCT025 BKN040
FM310700 04009KT P6SM VCSH FEW025 BKN040
ハワイ時間30日02-10時:風向不定6ノットの風
10-21時:020度から10ノットの風
21時-31日02時:040度から9ノットの風


サイパン空港
PGSN 301120Z 3012/3112 05016G22KT P6SM VCSH SCT020 BKN040
マリアナ時間30日22時-31日22時:050度から16ノット、突風22ノット

コメント
この記事をはてなブックマークに追加

1/29-1/30の航空気象通報(国内、海外)

2010年01月29日 23時21分33秒 | TAF
羽田空港
TAF RJTT 290839Z 2909/3012 10010KT 9999 FEW020 BKN040
BECMG 2912/2914 01008KT
BECMG 3003/3006 12008KT
日本時間29日18-21時:100度から10ノットの風
21-23時:風が変化
23時-30日12時:010度から8ノットの風
12-15時:風が変化
15-21時:120度から8ノットの風


富士山静岡空港
RJNS 290836Z 2909/3012 27014KT 9999 FEW030
日本時間29日18時-30日21時:270度から14ノットの風


那覇空港
TAF ROAH 290842Z 2909/3012 04010KT 9999 FEW030 SCT045
BECMG 2921/2924 11008KT
日本時間29日18時-30日06時:040度から10ノットの風
06-09時:風が変化
09-21時:110度から8ノットの風


マウイのカフルイ空港
PHOG 291135Z 2912/3012 20005KT P6SM FEW025 SCT040 BKN090
FM292100 22011KT P6SM VCSH SCT030 BKN050
FM300300 26011KT P6SM -SHRA SCT020 BKN035
FM300900 04008KT P6SM -SHRA SCT020 BKN035
ハワイ時間29日02-11時:200度から5ノットの風
11-17時:220度から11ノットの風
17-23時:260度から11ノットの風
23時-30日02時:040度から8ノットの風


サイパン空港
PGSN 291131Z 2912/3012 03010KT P6SM FEW022
FM300100 06015KT P6SM SCT022 SCT050
マリアナ時間29日22時-30日11時:030度から10ノットの風
11-22時:060度から15ノット

コメント
この記事をはてなブックマークに追加

1/26-1/27の航空気象通報(国内、海外)

2010年01月27日 23時49分15秒 | TAF
羽田空港
TAF AMD RJTT 271210Z 2712/2812 28010KT 9999 FEW030
BECMG 2714/2716 22015KT
TEMPO 2721/2806 22025G35KT
BECMG 2806/2809 34014KT
日本時間27日21-23時:280度から10ノットの風
23時-28日01時:風が変化
01-15時:220度から15ノットの風
但し、06-15時の間:一時、220度から25ノット、突風35ノット
15-18時:風が変化
18-21時:340度から14ノットの風


富士山静岡空港
TAF RJNS 270849Z 2709/2812 28008KT 9999 FEW025 SCT035
TEMPO 2721/2724 4000 -RA BR FEW006 BKN009 BKN015
BECMG 2800/2803 22018KT
TEMPO 2800/2806 22020G32KT 3000 SHRA BR
BECMG 2806/2809 28016KT
TEMPO 2806/2812 28018G30KT
日本時間27日18時-28日09時:280度から8ノットの風
09-12時:風が変化
12-15時:220度から18ノット
但し、09-15時の間:一時、220度から20ノット、突風32ノット
15-18時:風が変化
18-21時:280度から16ノットの風
但し、15-21時の間:一時、280度から18ノット、突風30ノット

但し、06-15時の間:一時、

那覇空港
TAF ROAH 270839Z 2709/2812 18010KT 9999 FEW020 SCT025
BECMG 2806/2809 02012KT
TEMPO 2806/2809 4000 SHRA
日本時間27日18時-28日15時:180度から10ノットの風
15-18時:風が変化
18-21時:020度から12ノットの風


マウイのカフルイ空港
PHOG 271135Z 2712/2812 20014KT P6SM VCSH SCT025 BKN050
TEMPO 2712/2714 4SM -SHRA BKN025 OVC050
FM271600 VRB05KT P6SM VCSH SCT025 BKN050
FM272100 01011KT P6SM SCT025 BKN050
ハワイ時間27日02-06時:200度から14ノットの風
06-11時:風向不定5ノットの風
11時-28日02時:010度から11ノットの風


サイパン空港
PGSN 271136Z 2712/2812 05016G22KT P6SM VCSH SCT020 BKN040
FM280100 06016G25KT P6SM VCSH SCT025
マリアナ時間27日22時-28日11時:050度から16ノット、突風22ノット

11-22時:060度から16ノット、突風25ノット

コメント
この記事をはてなブックマークに追加

1/26-1/27の航空気象通報(国内、海外)

2010年01月27日 00時02分57秒 | TAF
羽田空港
TAF RJTT 260836Z 2609/2712 36014KT 9999 FEW030
BECMG 2618/2621 30004KT
BECMG 2700/2703 18012KT
TEMPO 2706/2712 20020G30KT
日本時間26日18時-27日03時:360度から14ノットの風
03-06時:風が変化
06-09時:300度から4ノットの風
09-12時:風が変化
12-21時:180度から12ノットの風
但し、15-21時の間:一時、200度から20ノット、突風30ノット


富士山静岡空港
TAF RJNS 260841Z 2609/2712 34004KT 9999 FEW030
BECMG 2700/2703 25010KT
日本時間26日18時-27日09時:340度から4ノットの風
09-12時:風が変化
12-21時:250度から10ノットの風


那覇空港
TAF ROAH 260842Z 2609/2712 05008KT 9999 FEW030 SCT040
BECMG 2621/2624 11006KT
日本時間26日18時-27日06時:050度から8ノットの風
06-09時:風が変化
09-21時:110度から6ノットの風


マウイのカフルイ空港
PHOG 261129Z 2612/2712 14005KT P6SM SCT060
FM262000 20015G23KT P6SM FEW030 SCT060
FM270300 20011KT P6SM FEW030 SCT060
ハワイ時間26日02-10時:140度から5ノットの風
10-17時:200度から15ノット、突風23ノット
17時-27日02時:200度から11ノットの風


サイパン空港
PGSN 261120Z 2612/2712 04014KT P6SM VCSH SCT020 BKN040
マリアナ時間26日22時-27日22時:040度から14ノットの風

コメント
この記事をはてなブックマークに追加

1/24-1/25の航空気象通報(国内、海外)

2010年01月24日 22時47分09秒 | TAF
羽田空港
TAF RJTT 240842Z 2409/2512 18010KT 9999 FEW030 SCT050
BECMG 2414/2416 32006KT
BECMG 2500/2503 22016KT
TEMPO 2503/2509 22020G30KT
日本時間24日18-23時:180度から10ノットの風
23時-25日01時:風が変化
01-09時:320度から6ノットの風
09-12時:風が変化
12-21時:220度から16ノットの風
但し、12-18時の間:一時、220度から20ノット、突風30ノット


富士山静岡空港
TAF RJNS 240835Z 2409/2512 27012KT 9999 FEW030
TEMPO 2503/2512 27018G28KT
日本時間24日18時-25日21時:270度から12ノットの風
但し、25日12-21時の間:270度から18ノット、突風28ノット


那覇空港
TAF ROAH 240843Z 2409/2512 VRB02KT 9999 FEW030 BKN045
BECMG 2418/2421 16008KT
BECMG 2506/2509 01016KT
TEMPO 2506/2509 4000 SHRA
日本時間24日18時-25日03時:風向不定2ノットの風
03-06時:風が変化
06-15時:160度から8ノットの風
15-18時:風が変化
18-21時:010度から16ノットの風

但し、25日15-18時の間:一時、

マウイのカフルイ空港
PHOG 241120Z 2412/2512 15008KT P6SM SKC
FM242100 34010KT P6SM FEW050
FM250500 VRB05KT P6SM FEW045
FM250700 15007KT P6SM SKC
ハワイ時間24日02-11時:150度から8ノットの風
11-19時:340度から10ノットの風
19-21時:風向不定5ノットの風
21時-25日02時:150度から7ノットの風


サイパン空港
PGSN 241120Z 2412/2512 03012KT P6SM VCSH FEW025 SCT045
マリアナ時間24日22時-25日22時:030度から12ノットの風

コメント
この記事をはてなブックマークに追加